Back to Top

Language: 

My Weather Underground Personal Weather Station Historical Data with Graphs...

Delerius Weather Station Historical Data
Daily Summary for June 16, 2017 Units:  Metric    English   Both
« Previous Day
Next Day »
Daily Weekly Monthly Yearly Custom
  High: Low: Average:
Temperature: 20.7 °C 13.2 °C 16.8 °C
Dew Point: 15.1 °C 9.7 °C 12.1 °C
Humidity: 86 % 59 % 74 %
Wind Speed: 22.5 km/h 3.2 km/h 13.7 km/h
Wind Gust: 41.8 km/h - -
Wind:- - West
Pressure: 1024.6 hPa 1015.1 hPa -
Precipitation: 0 mm    
Historical Graphs
 
 
Tabular Data for June 16, 2017
Time Temperature Dew Point Pressure Wind Wind Speed Wind Gust Humidity Rainfall Rate (Hourly) solar Conditions
00:04 14.4 °C 10.4 °C 1015.1 hPa West 16.1 km/h 29 km/h 77 % 0 mm 0 W/m2
00:09 14.3 °C 10.3 °C 1015.5 hPa West 14.5 km/h 29 km/h 77 % 0 mm 0 W/m2
00:14 14.3 °C 10.5 °C 1015.5 hPa West 11.3 km/h 25.7 km/h 78 % 0 mm 0 W/m2
00:19 14.1 °C 10.3 °C 1015.5 hPa West 11.3 km/h 24.1 km/h 78 % 0 mm 0 W/m2
00:24 14.1 °C 10.3 °C 1015.5 hPa West 12.9 km/h 20.9 km/h 78 % 0 mm 0 W/m2
00:29 14 °C 10.2 °C 1015.8 hPa West 9.7 km/h 19.3 km/h 78 % 0 mm 0 W/m2
00:34 13.9 °C 10.1 °C 1015.8 hPa West 9.7 km/h 19.3 km/h 78 % 0 mm 0 W/m2
00:39 13.8 °C 10.1 °C 1015.8 hPa West 8 km/h 17.7 km/h 78 % 0 mm 0 W/m2
00:44 13.7 °C 9.9 °C 1015.8 hPa West 4.8 km/h 16.1 km/h 78 % 0 mm 0 W/m2
00:49 13.7 °C 10.1 °C 1015.8 hPa West 8 km/h 16.1 km/h 79 % 0 mm 0 W/m2
00:54 13.6 °C 10 °C 1015.8 hPa West 12.9 km/h 24.1 km/h 79 % 0 mm 0 W/m2
00:59 13.6 °C 10 °C 1015.8 hPa West 14.5 km/h 24.1 km/h 79 % 0 mm 0 W/m2
01:04 13.6 °C 10 °C 1015.8 hPa West 12.9 km/h 24.1 km/h 79 % 0 mm 0 W/m2
01:09 13.7 °C 10.1 °C 1016.1 hPa West 12.9 km/h 20.9 km/h 79 % 0 mm 0 W/m2
01:14 13.7 °C 10.3 °C 1016.1 hPa West 12.9 km/h 20.9 km/h 80 % 0 mm 0 W/m2
01:15 13.7 °C 10.3 °C 1016.1 hPa West 12.9 km/h 20.9 km/h 80 % 0 mm 0 W/m2
01:20 13.7 °C 10.3 °C 1016.1 hPa West 14.5 km/h 24.1 km/h 80 % 0 mm 0 W/m2
01:25 13.7 °C 10.3 °C 1016.1 hPa West 14.5 km/h 30.6 km/h 80 % 0 mm 0 W/m2
01:30 13.8 °C 10.4 °C 1016.1 hPa West 14.5 km/h 30.6 km/h 80 % 0 mm 0 W/m2
01:35 13.8 °C 10.4 °C 1015.8 hPa West 14.5 km/h 25.7 km/h 80 % 0 mm 0 W/m2
01:40 13.8 °C 10.4 °C 1016.1 hPa West 12.9 km/h 25.7 km/h 80 % 0 mm 0 W/m2
01:45 13.8 °C 10.4 °C 1016.1 hPa West 12.9 km/h 24.1 km/h 80 % 0 mm 0 W/m2
01:50 13.8 °C 10.4 °C 1016.1 hPa West 12.9 km/h 25.7 km/h 80 % 0 mm 0 W/m2
01:55 13.8 °C 10.6 °C 1016.5 hPa West 12.9 km/h 25.7 km/h 81 % 0 mm 0 W/m2
02:00 13.8 °C 10.6 °C 1016.5 hPa West 12.9 km/h 24.1 km/h 81 % 0 mm 0 W/m2
02:05 13.8 °C 10.6 °C 1016.5 hPa West 12.9 km/h 24.1 km/h 81 % 0 mm 0 W/m2
02:10 13.8 °C 10.8 °C 1016.5 hPa WNW 8 km/h 19.3 km/h 82 % 0 mm 0 W/m2
02:15 13.8 °C 10.8 °C 1016.8 hPa NW 3.2 km/h 14.5 km/h 82 % 0 mm 0 W/m2
02:20 13.8 °C 10.8 °C 1016.8 hPa West 3.2 km/h 12.9 km/h 82 % 0 mm 0 W/m2
02:25 13.7 °C 10.7 °C 1016.8 hPa West 8 km/h 19.3 km/h 82 % 0 mm 0 W/m2
02:30 13.7 °C 10.5 °C 1016.8 hPa West 11.3 km/h 25.7 km/h 81 % 0 mm 0 W/m2
02:35 13.7 °C 10.3 °C 1016.8 hPa West 14.5 km/h 25.7 km/h 80 % 0 mm 0 W/m2
02:40 13.8 °C 10.4 °C 1016.8 hPa West 14.5 km/h 25.7 km/h 80 % 0 mm 0 W/m2
02:45 13.8 °C 10.4 °C 1016.8 hPa WNW 14.5 km/h 25.7 km/h 80 % 0 mm 0 W/m2
02:50 13.8 °C 10.4 °C 1016.8 hPa West 12.9 km/h 25.7 km/h 80 % 0 mm 0 W/m2
02:55 13.8 °C 10.4 °C 1016.8 hPa West 12.9 km/h 20.9 km/h 80 % 0 mm 0 W/m2
03:00 13.8 °C 10.4 °C 1016.8 hPa West 16.1 km/h 35.4 km/h 80 % 0 mm 0 W/m2
03:05 13.7 °C 10.3 °C 1016.8 hPa WNW 17.7 km/h 35.4 km/h 80 % 0 mm 0 W/m2
03:10 13.7 °C 10.3 °C 1016.8 hPa WNW 17.7 km/h 33.8 km/h 80 % 0 mm 0 W/m2
03:16 13.7 °C 10.3 °C 1017.2 hPa WNW 16.1 km/h 29 km/h 80 % 0 mm 0 W/m2
03:21 13.7 °C 10.3 °C 1017.2 hPa WNW 14.5 km/h 32.2 km/h 80 % 0 mm 0 W/m2
03:26 13.7 °C 10.3 °C 1017.2 hPa WNW 14.5 km/h 32.2 km/h 80 % 0 mm 0 W/m2
03:31 13.7 °C 10.3 °C 1017.2 hPa West 16.1 km/h 33.8 km/h 80 % 0 mm 0 W/m2
03:36 13.6 °C 10.4 °C 1017.2 hPa West 16.1 km/h 33.8 km/h 81 % 0 mm 0 W/m2
03:41 13.6 °C 10.4 °C 1017.2 hPa West 14.5 km/h 29 km/h 81 % 0 mm 0 W/m2
03:46 13.6 °C 10.4 °C 1017.5 hPa WNW 14.5 km/h 29 km/h 81 % 0 mm 0 W/m2
03:51 13.6 °C 10.4 °C 1017.5 hPa WNW 12.9 km/h 24.1 km/h 81 % 0 mm 0 W/m2
03:56 13.5 °C 10.3 °C 1017.5 hPa WNW 12.9 km/h 20.9 km/h 81 % 0 mm 0 W/m2
04:01 13.5 °C 10.5 °C 1017.8 hPa WNW 12.9 km/h 20.9 km/h 82 % 0 mm 0 W/m2
04:06 13.5 °C 10.5 °C 1017.8 hPa WNW 11.3 km/h 19.3 km/h 82 % 0 mm 0 W/m2
04:11 13.5 °C 10.5 °C 1017.8 hPa WNW 9.7 km/h 19.3 km/h 82 % 0 mm 0 W/m2
04:16 13.4 °C 10.6 °C 1017.8 hPa WNW 9.7 km/h 16.1 km/h 83 % 0 mm 0 W/m2
04:21 13.4 °C 10.6 °C 1017.8 hPa WNW 9.7 km/h 16.1 km/h 83 % 0 mm 0 W/m2
04:26 13.3 °C 10.5 °C 1017.8 hPa WNW 9.7 km/h 17.7 km/h 83 % 0 mm 0 W/m2
04:31 13.3 °C 10.5 °C 1017.8 hPa WNW 9.7 km/h 17.7 km/h 83 % 0 mm 0 W/m2
04:36 13.3 °C 10.5 °C 1018.2 hPa WNW 9.7 km/h 17.7 km/h 83 % 0 mm 0 W/m2
04:41 13.2 °C 10.4 °C 1017.8 hPa WNW 11.3 km/h 22.5 km/h 83 % 0 mm 0 W/m2
04:46 13.2 °C 10.2 °C 1018.2 hPa WNW 14.5 km/h 22.5 km/h 82 % 0 mm 0 W/m2
04:51 13.2 °C 10.2 °C 1018.2 hPa West 14.5 km/h 32.2 km/h 82 % 0 mm 5 W/m2
04:56 13.2 °C 10 °C 1018.2 hPa West 16.1 km/h 32.2 km/h 81 % 0 mm 7 W/m2
05:01 13.2 °C 10 °C 1018.5 hPa WNW 12.9 km/h 25.7 km/h 81 % 0 mm 5 W/m2
05:06 13.2 °C 10 °C 1018.2 hPa WNW 11.3 km/h 20.9 km/h 81 % 0 mm 7 W/m2
05:11 13.2 °C 10 °C 1018.5 hPa WNW 11.3 km/h 19.3 km/h 81 % 0 mm 7 W/m2
05:16 13.2 °C 10 °C 1018.5 hPa WNW 11.3 km/h 22.5 km/h 81 % 0 mm 12 W/m2
05:21 13.2 °C 10 °C 1018.5 hPa WNW 12.9 km/h 22.5 km/h 81 % 0 mm 19 W/m2
05:26 13.2 °C 10 °C 1018.5 hPa WNW 11.3 km/h 17.7 km/h 81 % 0 mm 18 W/m2
05:31 13.2 °C 10 °C 1018.5 hPa West 11.3 km/h 24.1 km/h 81 % 0 mm 12 W/m2
05:36 13.3 °C 10.1 °C 1018.5 hPa West 11.3 km/h 24.1 km/h 81 % 0 mm 12 W/m2
05:41 13.3 °C 10.1 °C 1018.5 hPa West 11.3 km/h 17.7 km/h 81 % 0 mm 11 W/m2
05:46 13.3 °C 10.1 °C 1018.5 hPa West 11.3 km/h 17.7 km/h 81 % 0 mm 12 W/m2
05:51 13.3 °C 10.3 °C 1018.5 hPa West 11.3 km/h 19.3 km/h 82 % 0 mm 25 W/m2
05:56 13.2 °C 10.2 °C 1018.8 hPa West 9.7 km/h 19.3 km/h 82 % 0 mm 23 W/m2
06:01 13.2 °C 10.2 °C 1018.8 hPa West 9.7 km/h 17.7 km/h 82 % 0 mm 21 W/m2
06:06 13.2 °C 10.4 °C 1018.8 hPa West 8 km/h 17.7 km/h 83 % 0 mm 23 W/m2
06:11 13.2 °C 10.2 °C 1018.8 hPa West 6.4 km/h 12.9 km/h 82 % 0 mm 23 W/m2
06:16 13.2 °C 10.2 °C 1018.8 hPa West 8 km/h 16.1 km/h 82 % 0 mm 42 W/m2
06:21 13.3 °C 10.3 °C 1018.8 hPa WNW 12.9 km/h 22.5 km/h 82 % 0 mm 58 W/m2
06:26 13.3 °C 10.1 °C 1018.8 hPa WNW 11.3 km/h 22.5 km/h 81 % 0 mm 67 W/m2
06:29 13.4 °C 10.2 °C 1018.8 hPa WNW 11.3 km/h 19.3 km/h 81 % 0 mm 74 W/m2
06:34 13.5 °C 10.3 °C 1019.2 hPa WNW 9.7 km/h 19.3 km/h 81 % 0 mm 72 W/m2
06:39 13.6 °C 10.4 °C 1019.2 hPa WNW 9.7 km/h 16.1 km/h 81 % 0 mm 81 W/m2
06:44 13.7 °C 10.3 °C 1019.2 hPa West 11.3 km/h 17.7 km/h 80 % 0 mm 83 W/m2
06:49 13.7 °C 10.1 °C 1019.2 hPa West 9.7 km/h 17.7 km/h 79 % 0 mm 81 W/m2
06:54 13.8 °C 10.1 °C 1019.2 hPa West 11.3 km/h 24.1 km/h 78 % 0 mm 113 W/m2
06:59 13.8 °C 10.1 °C 1019.5 hPa WNW 12.9 km/h 24.1 km/h 78 % 0 mm 86 W/m2
07:04 13.9 °C 9.9 °C 1019.2 hPa West 14.5 km/h 29 km/h 77 % 0 mm 111 W/m2
07:09 13.9 °C 9.9 °C 1019.5 hPa West 16.1 km/h 29 km/h 77 % 0 mm 81 W/m2
07:14 13.9 °C 9.9 °C 1019.5 hPa West 16.1 km/h 25.7 km/h 77 % 0 mm 76 W/m2
07:19 13.9 °C 9.7 °C 1019.9 hPa West 14.5 km/h 24.1 km/h 76 % 0 mm 56 W/m2
07:24 13.9 °C 9.9 °C 1019.9 hPa West 14.5 km/h 24.1 km/h 77 % 0 mm 67 W/m2
07:29 13.9 °C 9.7 °C 1019.9 hPa West 16.1 km/h 32.2 km/h 76 % 0 mm 97 W/m2
07:34 13.9 °C 9.9 °C 1019.9 hPa West 19.3 km/h 35.4 km/h 77 % 0 mm 172 W/m2
07:40 14.1 °C 10.1 °C 1019.9 hPa West 17.7 km/h 35.4 km/h 77 % 0 mm 172 W/m2
07:45 14.2 °C 10 °C 1019.9 hPa West 17.7 km/h 32.2 km/h 76 % 0 mm 167 W/m2
07:50 14.4 °C 10.2 °C 1020.2 hPa West 16.1 km/h 32.2 km/h 76 % 0 mm 153 W/m2
07:55 14.5 °C 9.9 °C 1020.2 hPa West 16.1 km/h 30.6 km/h 74 % 0 mm 128 W/m2
08:00 14.5 °C 10.1 °C 1020.2 hPa WNW 14.5 km/h 30.6 km/h 75 % 0 mm 118 W/m2
08:05 14.5 °C 10.1 °C 1020.2 hPa WNW 11.3 km/h 20.9 km/h 75 % 0 mm 123 W/m2
08:10 14.5 °C 9.9 °C 1020.5 hPa WNW 12.9 km/h 24.1 km/h 74 % 0 mm 116 W/m2
08:15 14.6 °C 10 °C 1020.2 hPa WNW 12.9 km/h 24.1 km/h 74 % 0 mm 172 W/m2
08:20 14.6 °C 10 °C 1020.5 hPa WNW 12.9 km/h 24.1 km/h 74 % 0 mm 223 W/m2
08:25 14.8 °C 10.2 °C 1020.5 hPa WNW 12.9 km/h 24.1 km/h 74 % 0 mm 176 W/m2
08:30 14.9 °C 10.1 °C 1020.5 hPa WNW 11.3 km/h 25.7 km/h 73 % 0 mm 121 W/m2
08:35 14.9 °C 9.9 °C 1020.5 hPa WNW 12.9 km/h 25.7 km/h 72 % 0 mm 104 W/m2
08:40 14.9 °C 10.1 °C 1020.5 hPa West 14.5 km/h 29 km/h 73 % 0 mm 204 W/m2
08:45 14.9 °C 10.1 °C 1020.5 hPa West 16.1 km/h 29 km/h 73 % 0 mm 295 W/m2
08:50 15.1 °C 10.3 °C 1020.5 hPa West 17.7 km/h 29 km/h 73 % 0 mm 330 W/m2
08:55 15.4 °C 10.6 °C 1020.5 hPa WNW 17.7 km/h 30.6 km/h 73 % 0 mm 301 W/m2
09:00 15.8 °C 10.6 °C 1020.5 hPa WNW 16.1 km/h 30.6 km/h 71 % 0 mm 250 W/m2
09:05 16 °C 10.6 °C 1020.9 hPa WNW 16.1 km/h 32.2 km/h 70 % 0 mm 387 W/m2
09:10 16.1 °C 10.4 °C 1020.9 hPa WNW 19.3 km/h 37 km/h 69 % 0 mm 236 W/m2
09:15 16.2 °C 10.5 °C 1020.9 hPa WNW 19.3 km/h 37 km/h 69 % 0 mm 847 W/m2
09:20 16.1 °C 10.2 °C 1020.9 hPa WNW 16.1 km/h 30.6 km/h 68 % 0 mm 719 W/m2
09:25 16.3 °C 10.6 °C 1020.9 hPa WNW 16.1 km/h 30.6 km/h 69 % 0 mm 680 W/m2
09:30 16.9 °C 10.5 °C 1020.9 hPa WNW 16.1 km/h 29 km/h 66 % 0 mm 605 W/m2
09:35 17.3 °C 10.4 °C 1020.9 hPa WNW 16.1 km/h 30.6 km/h 64 % 0 mm 740 W/m2
09:40 17.3 °C 10.2 °C 1020.9 hPa WNW 17.7 km/h 37 km/h 63 % 0 mm 218 W/m2
09:45 16.8 °C 9.9 °C 1021.2 hPa West 19.3 km/h 37 km/h 64 % 0 mm 281 W/m2
09:50 16.7 °C 10.1 °C 1021.2 hPa WNW 19.3 km/h 37 km/h 65 % 0 mm 360 W/m2
09:55 16.9 °C 10.1 °C 1020.9 hPa WNW 19.3 km/h 33.8 km/h 64 % 0 mm 763 W/m2
10:00 17.3 °C 10.4 °C 1021.2 hPa WNW 19.3 km/h 32.2 km/h 64 % 0 mm 900 W/m2
10:05 17.7 °C 10.6 °C 1021.2 hPa WNW 16.1 km/h 29 km/h 63 % 0 mm 911 W/m2
10:10 17.8 °C 10.7 °C 1021.2 hPa WNW 16.1 km/h 30.6 km/h 63 % 0 mm 269 W/m2
10:15 17.6 °C 10.2 °C 1021.2 hPa WNW 17.7 km/h 30.6 km/h 62 % 0 mm 336 W/m2
10:20 17.6 °C 10 °C 1021.6 hPa WNW 19.3 km/h 33.8 km/h 61 % 0 mm 213 W/m2
10:26 17.8 °C 10.2 °C 1021.2 hPa WNW 19.3 km/h 33.8 km/h 61 % 0 mm 984 W/m2
10:31 18.1 °C 10.2 °C 1021.2 hPa WNW 16.1 km/h 29 km/h 60 % 0 mm 833 W/m2
10:36 18.2 °C 10.1 °C 1021.2 hPa West 17.7 km/h 35.4 km/h 59 % 0 mm 872 W/m2
10:41 18.5 °C 10.3 °C 1021.6 hPa WNW 17.7 km/h 35.4 km/h 59 % 0 mm 432 W/m2
10:46 18.7 °C 10.5 °C 1021.6 hPa WNW 20.9 km/h 35.4 km/h 59 % 0 mm 1127 W/m2
10:51 18.6 °C 10.7 °C 1021.6 hPa West 20.9 km/h 35.4 km/h 60 % 0 mm 536 W/m2
10:56 18.4 °C 10.7 °C 1021.6 hPa West 17.7 km/h 33.8 km/h 61 % 0 mm 360 W/m2
11:01 18.2 °C 10.6 °C 1021.6 hPa WNW 17.7 km/h 30.6 km/h 61 % 0 mm 455 W/m2
11:06 18.3 °C 11.1 °C 1021.6 hPa WNW 16.1 km/h 30.6 km/h 63 % 0 mm 970 W/m2
11:11 18.4 °C 10.7 °C 1021.6 hPa WNW 16.1 km/h 37 km/h 61 % 0 mm 311 W/m2
11:16 18.5 °C 10.8 °C 1021.9 hPa WNW 17.7 km/h 37 km/h 61 % 0 mm 385 W/m2
11:21 18.4 °C 11 °C 1021.9 hPa West 16.1 km/h 33.8 km/h 62 % 0 mm 452 W/m2
11:26 18 °C 10.8 °C 1021.9 hPa West 17.7 km/h 35.4 km/h 63 % 0 mm 297 W/m2
11:31 17.7 °C 10.6 °C 1021.9 hPa West 19.3 km/h 35.4 km/h 63 % 0 mm 218 W/m2
11:36 17.6 °C 10.9 °C 1021.9 hPa West 16.1 km/h 30.6 km/h 65 % 0 mm 264 W/m2
11:41 17.5 °C 10.8 °C 1021.9 hPa WNW 17.7 km/h 37 km/h 65 % 0 mm 262 W/m2
11:46 17.6 °C 11.2 °C 1021.9 hPa WNW 20.9 km/h 37 km/h 66 % 0 mm 552 W/m2
11:51 17.6 °C 11.2 °C 1021.9 hPa WNW 20.9 km/h 37 km/h 66 % 0 mm 461 W/m2
11:56 17.7 °C 11.3 °C 1021.9 hPa WNW 22.5 km/h 35.4 km/h 66 % 0 mm 770 W/m2
12:01 18 °C 12 °C 1021.9 hPa West 19.3 km/h 35.4 km/h 68 % 0 mm 689 W/m2
12:06 18.2 °C 11.9 °C 1021.9 hPa West 19.3 km/h 32.2 km/h 67 % 0 mm 1167 W/m2
12:11 18.4 °C 11.9 °C 1022.2 hPa West 19.3 km/h 32.2 km/h 66 % 0 mm 399 W/m2
12:16 18.4 °C 11.7 °C 1022.2 hPa West 17.7 km/h 30.6 km/h 65 % 0 mm 380 W/m2
12:21 18.4 °C 11.9 °C 1022.6 hPa WNW 17.7 km/h 30.6 km/h 66 % 0 mm 323 W/m2
12:26 18.3 °C 11.8 °C 1022.6 hPa WNW 17.7 km/h 29 km/h 66 % 0 mm 510 W/m2
12:31 18.4 °C 12.2 °C 1022.2 hPa WNW 17.7 km/h 30.6 km/h 67 % 0 mm 1201 W/m2
12:36 18.7 °C 12.2 °C 1022.2 hPa WNW 16.1 km/h 30.6 km/h 66 % 0 mm 526 W/m2
12:41 18.8 °C 12.1 °C 1022.2 hPa WNW 17.7 km/h 32.2 km/h 65 % 0 mm 352 W/m2
12:46 18.7 °C 12 °C 1022.2 hPa WNW 20.9 km/h 35.4 km/h 65 % 0 mm 605 W/m2
12:51 18.7 °C 12.2 °C 1022.2 hPa WNW 20.9 km/h 35.4 km/h 66 % 0 mm 427 W/m2
12:56 18.8 °C 12.3 °C 1022.6 hPa WNW 20.9 km/h 33.8 km/h 66 % 0 mm 480 W/m2
13:01 18.8 °C 12.3 °C 1022.6 hPa West 20.9 km/h 38.6 km/h 66 % 0 mm 610 W/m2
13:06 19 °C 12.5 °C 1022.6 hPa West 20.9 km/h 38.6 km/h 66 % 0 mm 687 W/m2
13:12 19 °C 12.5 °C 1022.2 hPa West 22.5 km/h 37 km/h 66 % 0 mm 605 W/m2
13:16 19 °C 12.7 °C 1022.2 hPa West 19.3 km/h 37 km/h 67 % 0 mm 381 W/m2
13:22 19.2 °C 12.9 °C 1022.2 hPa WNW 17.7 km/h 32.2 km/h 67 % 0 mm 1113 W/m2
13:27 19.6 °C 13.3 °C 1022.2 hPa WNW 17.7 km/h 33.8 km/h 67 % 0 mm 1035 W/m2
13:32 19.8 °C 13.1 °C 1022.2 hPa WNW 17.7 km/h 33.8 km/h 65 % 0 mm 550 W/m2
13:37 19.8 °C 12.8 °C 1022.2 hPa WNW 19.3 km/h 33.8 km/h 64 % 0 mm 942 W/m2
13:42 19.5 °C 12.5 °C 1022.2 hPa WNW 20.9 km/h 41.8 km/h 64 % 0 mm 406 W/m2
13:47 19.3 °C 12.8 °C 1022.2 hPa WNW 20.9 km/h 41.8 km/h 66 % 0 mm 471 W/m2
13:52 19.3 °C 13 °C 1022.2 hPa West 19.3 km/h 35.4 km/h 67 % 0 mm 352 W/m2
13:57 19.4 °C 13.1 °C 1022.6 hPa WNW 16.1 km/h 30.6 km/h 67 % 0 mm 327 W/m2
14:02 19.4 °C 13.1 °C 1022.6 hPa WNW 16.1 km/h 30.6 km/h 67 % 0 mm 322 W/m2
14:07 19.4 °C 13.1 °C 1022.6 hPa WNW 16.1 km/h 29 km/h 67 % 0 mm 315 W/m2
14:12 19.4 °C 13.1 °C 1022.6 hPa WNW 12.9 km/h 25.7 km/h 67 % 0 mm 316 W/m2
14:17 19.4 °C 13.1 °C 1022.6 hPa WNW 14.5 km/h 30.6 km/h 67 % 0 mm 308 W/m2
14:22 19.4 °C 13.1 °C 1022.6 hPa West 16.1 km/h 30.6 km/h 67 % 0 mm 304 W/m2
14:27 19.4 °C 13.1 °C 1022.6 hPa WNW 14.5 km/h 30.6 km/h 67 % 0 mm 243 W/m2
14:32 19.4 °C 13.1 °C 1022.6 hPa WNW 12.9 km/h 25.7 km/h 67 % 0 mm 192 W/m2
14:37 19.3 °C 13 °C 1022.6 hPa West 14.5 km/h 30.6 km/h 67 % 0 mm 192 W/m2
14:42 19.2 °C 12.9 °C 1022.6 hPa West 16.1 km/h 30.6 km/h 67 % 0 mm 155 W/m2
14:47 19.1 °C 13.1 °C 1022.6 hPa West 17.7 km/h 32.2 km/h 68 % 0 mm 132 W/m2
14:52 19 °C 12.9 °C 1022.6 hPa West 14.5 km/h 32.2 km/h 68 % 0 mm 135 W/m2
14:57 19 °C 12.9 °C 1022.6 hPa West 12.9 km/h 25.7 km/h 68 % 0 mm 179 W/m2
14:59 19 °C 12.9 °C 1022.6 hPa West 12.9 km/h 25.7 km/h 68 % 0 mm 169 W/m2
15:04 19 °C 12.9 °C 1022.6 hPa West 14.5 km/h 24.1 km/h 68 % 0 mm 141 W/m2
15:09 19 °C 13.2 °C 1022.6 hPa West 12.9 km/h 22.5 km/h 69 % 0 mm 142 W/m2
15:14 19 °C 13.2 °C 1022.9 hPa West 11.3 km/h 19.3 km/h 69 % 0 mm 156 W/m2
15:19 19.1 °C 13.5 °C 1022.9 hPa West 11.3 km/h 19.3 km/h 70 % 0 mm 179 W/m2
15:24 19.1 °C 13.3 °C 1022.6 hPa WNW 12.9 km/h 22.5 km/h 69 % 0 mm 244 W/m2
15:29 19.2 °C 13.2 °C 1022.6 hPa West 14.5 km/h 30.6 km/h 68 % 0 mm 237 W/m2
15:34 19.4 °C 13.3 °C 1022.6 hPa West 14.5 km/h 30.6 km/h 68 % 0 mm 239 W/m2
15:39 19.4 °C 13.1 °C 1022.9 hPa West 12.9 km/h 25.7 km/h 67 % 0 mm 218 W/m2
15:44 19.4 °C 13.3 °C 1022.9 hPa West 12.9 km/h 22.5 km/h 68 % 0 mm 192 W/m2
15:49 19.5 °C 13.2 °C 1022.9 hPa West 12.9 km/h 24.1 km/h 67 % 0 mm 211 W/m2
15:54 19.5 °C 13 °C 1022.9 hPa West 14.5 km/h 25.7 km/h 66 % 0 mm 213 W/m2
15:59 19.5 °C 13.2 °C 1022.9 hPa West 16.1 km/h 25.7 km/h 67 % 0 mm 181 W/m2
16:04 19.5 °C 13.2 °C 1022.6 hPa West 14.5 km/h 25.7 km/h 67 % 0 mm 236 W/m2
16:09 19.6 °C 13.3 °C 1022.6 hPa West 14.5 km/h 24.1 km/h 67 % 0 mm 200 W/m2
16:14 19.6 °C 13.6 °C 1022.6 hPa West 14.5 km/h 24.1 km/h 68 % 0 mm 171 W/m2
16:19 19.5 °C 13.4 °C 1022.6 hPa West 14.5 km/h 24.1 km/h 68 % 0 mm 216 W/m2
16:24 19.6 °C 13.6 °C 1022.9 hPa West 14.5 km/h 24.1 km/h 68 % 0 mm 193 W/m2
16:29 19.6 °C 13.6 °C 1022.6 hPa West 14.5 km/h 29 km/h 68 % 0 mm 360 W/m2
16:34 19.7 °C 13.6 °C 1022.6 hPa West 16.1 km/h 35.4 km/h 68 % 0 mm 343 W/m2
16:39 19.8 °C 13.7 °C 1022.6 hPa West 17.7 km/h 35.4 km/h 68 % 0 mm 492 W/m2
16:44 20.2 °C 13.9 °C 1022.6 hPa West 19.3 km/h 30.6 km/h 67 % 0 mm 506 W/m2
16:49 20.5 °C 14.2 °C 1022.6 hPa West 19.3 km/h 30.6 km/h 67 % 0 mm 650 W/m2
16:54 20.7 °C 14.1 °C 1022.6 hPa West 16.1 km/h 25.7 km/h 66 % 0 mm 274 W/m2
16:59 20.6 °C 13.8 °C 1022.6 hPa West 17.7 km/h 32.2 km/h 65 % 0 mm 714 W/m2
17:04 20.4 °C 13.8 °C 1022.6 hPa West 19.3 km/h 32.2 km/h 66 % 0 mm 411 W/m2
17:09 20.4 °C 13.8 °C 1022.6 hPa West 20.9 km/h 33.8 km/h 66 % 0 mm 724 W/m2
17:14 20.4 °C 14.1 °C 1022.6 hPa West 20.9 km/h 33.8 km/h 67 % 0 mm 355 W/m2
17:19 20.4 °C 14.1 °C 1022.6 hPa West 17.7 km/h 29 km/h 67 % 0 mm 253 W/m2
17:24 20.6 °C 14.3 °C 1022.6 hPa West 14.5 km/h 24.1 km/h 67 % 0 mm 220 W/m2
17:29 20.4 °C 14.1 °C 1022.6 hPa West 12.9 km/h 24.1 km/h 67 % 0 mm 199 W/m2
17:35 20.3 °C 14.2 °C 1022.6 hPa West 14.5 km/h 25.7 km/h 68 % 0 mm 248 W/m2
17:40 20.2 °C 14.1 °C 1022.6 hPa West 14.5 km/h 29 km/h 68 % 0 mm 237 W/m2
17:45 20 °C 14.1 °C 1022.6 hPa West 16.1 km/h 29 km/h 69 % 0 mm 269 W/m2
17:50 19.9 °C 14.1 °C 1022.6 hPa West 17.7 km/h 29 km/h 69 % 0 mm 260 W/m2
17:55 20.1 °C 14.2 °C 1022.6 hPa West 16.1 km/h 29 km/h 69 % 0 mm 392 W/m2
18:00 20.2 °C 14.1 °C 1022.9 hPa West 16.1 km/h 29 km/h 68 % 0 mm 220 W/m2
18:05 20.2 °C 14.1 °C 1022.6 hPa West 14.5 km/h 25.7 km/h 68 % 0 mm 134 W/m2
18:10 19.9 °C 14.1 °C 1022.6 hPa West 17.7 km/h 33.8 km/h 69 % 0 mm 325 W/m2
18:15 19.9 °C 14.1 °C 1022.6 hPa West 19.3 km/h 33.8 km/h 69 % 0 mm 392 W/m2
18:20 20 °C 14.1 °C 1022.6 hPa West 16.1 km/h 29 km/h 69 % 0 mm 425 W/m2
18:25 20.1 °C 14.2 °C 1022.6 hPa West 14.5 km/h 24.1 km/h 69 % 0 mm 496 W/m2
18:30 20.2 °C 14.3 °C 1022.9 hPa West 14.5 km/h 24.1 km/h 69 % 0 mm 211 W/m2
18:35 20.1 °C 14.2 °C 1022.9 hPa West 14.5 km/h 24.1 km/h 69 % 0 mm 179 W/m2
18:40 19.9 °C 14.1 °C 1022.9 hPa West 14.5 km/h 24.1 km/h 69 % 0 mm 146 W/m2
18:45 19.8 °C 14.2 °C 1022.9 hPa West 12.9 km/h 22.5 km/h 70 % 0 mm 125 W/m2
18:50 19.8 °C 14.2 °C 1022.9 hPa West 12.9 km/h 22.5 km/h 70 % 0 mm 114 W/m2
18:55 19.8 °C 14.2 °C 1022.9 hPa West 11.3 km/h 24.1 km/h 70 % 0 mm 144 W/m2
19:00 19.7 °C 14.3 °C 1022.9 hPa West 11.3 km/h 24.1 km/h 71 % 0 mm 128 W/m2
19:05 19.7 °C 14.1 °C 1022.9 hPa West 12.9 km/h 22.5 km/h 70 % 0 mm 102 W/m2
19:10 19.6 °C 14.2 °C 1022.9 hPa West 12.9 km/h 22.5 km/h 71 % 0 mm 86 W/m2
19:15 19.6 °C 14.2 °C 1022.9 hPa West 11.3 km/h 20.9 km/h 71 % 0 mm 83 W/m2
19:20 19.6 °C 14.2 °C 1022.9 hPa West 12.9 km/h 20.9 km/h 71 % 0 mm 88 W/m2
19:25 19.5 °C 14.3 °C 1022.9 hPa West 12.9 km/h 20.9 km/h 72 % 0 mm 83 W/m2
19:30 19.4 °C 14.2 °C 1022.9 hPa West 14.5 km/h 29 km/h 72 % 0 mm 74 W/m2
19:35 19.3 °C 14.1 °C 1022.9 hPa West 17.7 km/h 30.6 km/h 72 % 0 mm 30 W/m2
19:40 19.2 °C 14.1 °C 1022.9 hPa West 17.7 km/h 30.6 km/h 72 % 0 mm 56 W/m2
19:45 19.1 °C 14.2 °C 1023.2 hPa West 16.1 km/h 33.8 km/h 73 % 0 mm 109 W/m2
19:50 19.2 °C 14.2 °C 1022.9 hPa West 17.7 km/h 33.8 km/h 73 % 0 mm 160 W/m2
19:55 19.2 °C 14.2 °C 1023.2 hPa West 17.7 km/h 30.6 km/h 73 % 0 mm 118 W/m2
20:00 19.2 °C 14.2 °C 1023.2 hPa West 16.1 km/h 30.6 km/h 73 % 0 mm 134 W/m2
20:05 19 °C 14.3 °C 1023.2 hPa West 17.7 km/h 35.4 km/h 74 % 0 mm 69 W/m2
20:10 18.8 °C 14.3 °C 1023.2 hPa West 16.1 km/h 35.4 km/h 75 % 0 mm 60 W/m2
20:15 18.7 °C 14.4 °C 1023.2 hPa West 14.5 km/h 29 km/h 76 % 0 mm 47 W/m2
20:20 18.6 °C 14.5 °C 1023.2 hPa West 14.5 km/h 29 km/h 77 % 0 mm 42 W/m2
20:25 18.5 °C 14.4 °C 1023.2 hPa West 11.3 km/h 24.1 km/h 77 % 0 mm 30 W/m2
20:30 18.4 °C 14.3 °C 1023.2 hPa West 9.7 km/h 22.5 km/h 77 % 0 mm 26 W/m2
20:35 18.4 °C 14.5 °C 1023.2 hPa West 8 km/h 22.5 km/h 78 % 0 mm 21 W/m2
20:40 18.4 °C 14.5 °C 1023.2 hPa West 8 km/h 16.1 km/h 78 % 0 mm 16 W/m2
20:45 18.4 °C 14.5 °C 1023.2 hPa West 8 km/h 16.1 km/h 78 % 0 mm 16 W/m2
20:46 18.3 °C 14.4 °C 1023.2 hPa West 8 km/h 16.1 km/h 78 % 0 mm 16 W/m2
20:51 18.3 °C 14.6 °C 1023.2 hPa West 8 km/h 16.1 km/h 79 % 0 mm 9 W/m2
20:56 18.3 °C 14.6 °C 1023.2 hPa West 9.7 km/h 11.3 km/h 79 % 0 mm 7 W/m2
21:01 18.3 °C 14.6 °C 1023.2 hPa West 11.3 km/h 22.5 km/h 79 % 0 mm 0 W/m2
21:06 18.3 °C 14.8 °C 1023.6 hPa West 12.9 km/h 22.5 km/h 80 % 0 mm 0 W/m2
21:11 18.3 °C 14.8 °C 1023.6 hPa West 11.3 km/h 20.9 km/h 80 % 0 mm 0 W/m2
21:16 18.3 °C 14.8 °C 1023.6 hPa West 11.3 km/h 17.7 km/h 80 % 0 mm 0 W/m2
21:21 18.3 °C 15 °C 1023.6 hPa WNW 9.7 km/h 17.7 km/h 81 % 0 mm 5 W/m2
21:26 18.3 °C 15 °C 1023.6 hPa WNW 9.7 km/h 16.1 km/h 81 % 0 mm 5 W/m2
21:31 18.3 °C 15 °C 1023.9 hPa WNW 8 km/h 16.1 km/h 81 % 0 mm 0 W/m2
21:36 18.3 °C 15 °C 1023.9 hPa WNW 6.4 km/h 19.3 km/h 81 % 0 mm 0 W/m2
21:41 18.3 °C 15 °C 1023.9 hPa WNW 6.4 km/h 19.3 km/h 81 % 0 mm 0 W/m2
21:46 18.2 °C 14.9 °C 1023.9 hPa WNW 6.4 km/h 11.3 km/h 81 % 0 mm 0 W/m2
21:52 18.2 °C 14.9 °C 1023.9 hPa WNW 6.4 km/h 11.3 km/h 81 % 0 mm 0 W/m2
21:57 18.2 °C 14.9 °C 1023.9 hPa WNW 4.8 km/h 9.7 km/h 81 % 0 mm 0 W/m2
22:02 18.1 °C 14.8 °C 1023.9 hPa West 6.4 km/h 11.3 km/h 81 % 0 mm 0 W/m2
22:07 18.1 °C 14.8 °C 1023.9 hPa WNW 6.4 km/h 14.5 km/h 81 % 0 mm 0 W/m2
22:08 18.1 °C 14.8 °C 1024.3 hPa West 6.4 km/h 14.5 km/h 81 % 0 mm 0 W/m2
22:13 18.1 °C 14.8 °C 1023.9 hPa WSW 4.8 km/h 9.7 km/h 81 % 0 mm 0 W/m2
22:18 18 °C 14.7 °C 1024.3 hPa SW 3.2 km/h 9.7 km/h 81 % 0 mm 0 W/m2
22:23 17.9 °C 14.8 °C 1024.3 hPa West 3.2 km/h 11.3 km/h 82 % 0 mm 0 W/m2
22:27 17.9 °C 14.8 °C 1024.3 hPa WNW 4.8 km/h 11.3 km/h 82 % 0 mm 0 W/m2
22:33 17.8 °C 14.7 °C 1024.3 hPa WNW 4.8 km/h 11.3 km/h 82 % 0 mm 0 W/m2
22:43 17.7 °C 14.8 °C 1024.3 hPa West 6.4 km/h 14.5 km/h 83 % 0 mm 0 W/m2
22:48 17.7 °C 14.8 °C 1024.3 hPa West 6.4 km/h 14.5 km/h 83 % 0 mm 0 W/m2
22:53 17.7 °C 14.8 °C 1024.3 hPa West 6.4 km/h 19.3 km/h 83 % 0 mm 0 W/m2
22:58 17.6 °C 14.7 °C 1024.3 hPa West 4.8 km/h 19.3 km/h 83 % 0 mm 0 W/m2
23:03 17.6 °C 14.9 °C 1024.3 hPa West 3.2 km/h 14.5 km/h 84 % 0 mm 0 W/m2
23:08 17.5 °C 14.8 °C 1024.3 hPa West 4.8 km/h 14.5 km/h 84 % 0 mm 0 W/m2
23:13 17.5 °C 14.8 °C 1024.6 hPa WNW 6.4 km/h 12.9 km/h 84 % 0 mm 0 W/m2
23:18 17.5 °C 14.9 °C 1024.6 hPa WNW 8 km/h 16.1 km/h 85 % 0 mm 0 W/m2
23:23 17.4 °C 14.8 °C 1024.6 hPa WNW 8 km/h 16.1 km/h 85 % 0 mm 0 W/m2
23:28 17.4 °C 15.1 °C 1024.6 hPa WNW 9.7 km/h 17.7 km/h 86 % 0 mm 0 W/m2
23:33 17.4 °C 15.1 °C 1024.6 hPa WNW 9.7 km/h 17.7 km/h 86 % 0 mm 0 W/m2
23:38 17.4 °C 15.1 °C 1024.6 hPa WNW 9.7 km/h 14.5 km/h 86 % 0 mm 0 W/m2
23:43 17.4 °C 15.1 °C 1024.6 hPa WNW 9.7 km/h 14.5 km/h 86 % 0 mm 0 W/m2
23:48 17.4 °C 15.1 °C 1024.6 hPa WNW 9.7 km/h 14.5 km/h 86 % 0 mm 0 W/m2
23:53 17.4 °C 15.1 °C 1024.6 hPa WNW 8 km/h 14.5 km/h 86 % 0 mm 0 W/m2
23:58 17.3 °C 14.9 °C 1024.6 hPa WNW 8 km/h 12.9 km/h 86 % 0 mm 0 W/m2
Delerius-Weather
Compliments of Weather Underground - 2.25 mb

Data updates at regular intervals.